Time;durP1;ratioP1;P1;durP2;ratioP2;P2;SDS_P1;SDS_P2;PMS_P1;PMS_P2;Temp;Humidity;BMP_temperature;BMP_pressure;BME280_temperature;BME280_humidity;BME280_pressure;Samples;Min_cycle;Max_cycle;Signal;HPM_P1;HPM_P2
2024/02/20 00:00:23;;;;;;;69.60;8.43;;;6.90;99.90;;;;;;5020779;28;20219;-70
2024/02/20 00:02:49;;;;;;;68.65;9.07;;;6.90;99.90;;;;;;5020298;28;20180;-70
2024/02/20 00:05:15;;;;;;;62.92;7.68;;;6.90;99.90;;;;;;5020922;28;20294;-71
2024/02/20 00:07:40;;;;;;;66.05;8.40;;;6.90;99.90;;;;;;5020626;28;20200;-69
2024/02/20 00:10:08;;;;;;;77.22;8.93;;;6.80;99.90;;;;;;5021010;28;20243;-70
2024/02/20 00:12:38;;;;;;;65.65;8.18;;;6.80;99.90;;;;;;5020711;28;20194;-69
2024/02/20 00:15:08;;;;;;;70.68;8.13;;;6.80;99.90;;;;;;5035186;28;20294;-71
2024/02/20 00:17:37;;;;;;;66.38;7.38;;;6.80;99.90;;;;;;5035477;28;20192;-71
2024/02/20 00:20:06;;;;;;;71.07;9.05;;;6.80;99.90;;;;;;5019944;28;20195;-69
2024/02/20 00:22:35;;;;;;;58.70;7.28;;;6.70;99.90;;;;;;5019716;28;20250;-71
2024/02/20 00:25:02;;;;;;;62.20;8.15;;;6.70;99.90;;;;;;5020633;28;20207;-68
2024/02/20 00:27:30;;;;;;;71.78;8.35;;;6.70;99.90;;;;;;5020335;28;20199;-70
2024/02/20 00:29:55;;;;;;;58.63;8.07;;;6.70;99.90;;;;;;5020645;28;20215;-68
2024/02/20 00:32:21;;;;;;;59.38;7.80;;;6.70;99.90;;;;;;5020339;28;20774;-71
2024/02/20 00:34:47;;;;;;;67.93;8.40;;;6.60;99.90;;;;;;5007808;28;20236;-70
2024/02/20 00:37:14;;;;;;;66.70;8.35;;;6.60;99.90;;;;;;5005837;28;20230;-70
2024/02/20 00:39:39;;;;;;;80.10;8.15;;;6.60;99.90;;;;;;5020728;28;20539;-69
2024/02/20 00:42:05;;;;;;;60.92;7.90;;;6.60;99.90;;;;;;5023859;28;20200;-69
2024/02/20 00:44:31;;;;;;;64.18;8.27;;;6.60;99.90;;;;;;5025260;28;20192;-70
2024/02/20 00:46:56;;;;;;;59.72;7.25;;;6.50;99.90;;;;;;5024575;28;20204;-69
2024/02/20 00:49:23;;;;;;;66.30;7.72;;;6.50;99.90;;;;;;5024074;28;20274;-68
2024/02/20 00:51:49;;;;;;;69.93;8.63;;;6.50;99.90;;;;;;5023867;28;20698;-69
2024/02/20 00:54:15;;;;;;;67.40;8.20;;;6.50;99.90;;;;;;5023981;28;20195;-68
2024/02/20 00:56:41;;;;;;;71.65;8.32;;;6.50;99.90;;;;;;5024303;28;20188;-71
2024/02/20 00:59:09;;;;;;;70.50;8.48;;;6.50;99.90;;;;;;5024535;28;20323;-69
2024/02/20 01:01:35;;;;;;;64.00;8.32;;;6.60;99.90;;;;;;5024195;28;20202;-71
2024/02/20 01:04:00;;;;;;;71.75;8.02;;;6.60;99.90;;;;;;5024412;28;20561;-69
2024/02/20 01:06:26;;;;;;;66.30;8.07;;;6.60;99.90;;;;;;5027699;28;20196;-68
2024/02/20 01:08:52;;;;;;;69.72;8.15;;;6.60;99.90;;;;;;5023382;28;20219;-69
2024/02/20 01:11:18;;;;;;;63.13;7.45;;;6.60;99.90;;;;;;5024512;28;20192;-71
2024/02/20 01:13:43;;;;;;;70.78;8.75;;;6.60;99.90;;;;;;5023510;28;20198;-70
2024/02/20 01:16:09;;;;;;;64.18;9.02;;;6.60;99.90;;;;;;5011411;28;20243;-71
2024/02/20 01:18:35;;;;;;;68.10;8.35;;;6.60;99.90;;;;;;5023876;28;20632;-70
2024/02/20 01:21:01;;;;;;;58.05;8.27;;;6.60;99.90;;;;;;5023216;28;20196;-72
2024/02/20 01:23:27;;;;;;;56.80;7.22;;;6.60;99.90;;;;;;5024226;28;20204;-70
2024/02/20 01:25:52;;;;;;;70.50;7.78;;;6.70;99.90;;;;;;5023715;28;20195;-71
2024/02/20 01:28:18;;;;;;;68.63;8.05;;;6.60;99.90;;;;;;5023646;28;20290;-70
2024/02/20 01:30:44;;;;;;;71.43;8.35;;;6.70;99.90;;;;;;5023375;28;20196;-68
2024/02/20 01:33:10;;;;;;;83.78;8.10;;;6.70;99.90;;;;;;5024114;28;20707;-69
2024/02/20 01:35:38;;;;;;;59.28;7.65;;;6.70;99.90;;;;;;5024338;28;20302;-70
2024/02/20 01:38:04;;;;;;;58.28;6.80;;;6.70;99.90;;;;;;5023158;28;20211;-70
2024/02/20 01:40:31;;;;;;;59.08;7.20;;;6.70;99.90;;;;;;5023158;28;20203;-69
2024/02/20 01:42:58;;;;;;;67.80;8.02;;;6.70;99.90;;;;;;5039057;28;20203;-69
2024/02/20 01:45:28;;;;;;;58.72;7.45;;;6.80;99.90;;;;;;5023212;28;20183;-72
2024/02/20 01:48:00;;;;;;;62.10;7.22;;;6.80;99.90;;;;;;5023754;28;20191;-70
2024/02/20 01:50:28;;;;;;;74.07;7.80;;;6.80;99.90;;;;;;5023578;28;20191;-68
2024/02/20 01:52:53;;;;;;;63.00;7.13;;;6.80;99.90;;;;;;5021813;28;20222;-67
2024/02/20 01:55:20;;;;;;;61.17;7.47;;;6.80;99.90;;;;;;5023733;28;20227;-70
2024/02/20 01:57:47;;;;;;;61.67;7.95;;;6.80;99.90;;;;;;5009993;28;20299;-69
2024/02/20 02:00:13;;;;;;;53.65;7.00;;;6.80;99.90;;;;;;5020591;28;20196;-71
2024/02/20 02:02:38;;;;;;;65.30;7.65;;;6.80;99.90;;;;;;5024227;28;20800;-70
2024/02/20 02:05:05;;;;;;;55.28;7.07;;;6.80;99.90;;;;;;5008581;28;20196;-69
2024/02/20 02:07:31;;;;;;;49.15;6.97;;;6.80;99.90;;;;;;5022113;28;20254;-69
2024/02/20 02:09:56;;;;;;;65.20;7.38;;;6.80;99.90;;;;;;5022782;28;20570;-70
2024/02/20 02:12:22;;;;;;;58.95;8.00;;;6.80;99.90;;;;;;5022865;28;20195;-71
2024/02/20 02:14:48;;;;;;;61.75;7.53;;;6.70;99.90;;;;;;5023216;28;20194;-71
2024/02/20 02:17:14;;;;;;;64.00;7.43;;;6.80;99.90;;;;;;5023099;28;20199;-67
2024/02/20 02:19:40;;;;;;;66.80;7.55;;;6.80;99.90;;;;;;5022695;28;20611;-71
2024/02/20 02:22:06;;;;;;;59.05;6.80;;;6.80;99.90;;;;;;5022148;28;20196;-69
2024/02/20 02:24:36;;;;;;;67.82;6.97;;;6.80;99.90;;;;;;5023173;28;20271;-72
2024/02/20 02:27:02;;;;;;;62.50;7.00;;;6.70;99.90;;;;;;5023313;28;20262;-70
2024/02/20 02:29:28;;;;;;;64.68;7.15;;;6.80;99.90;;;;;;5023043;28;20219;-69
2024/02/20 02:31:55;;;;;;;63.28;7.43;;;6.80;99.90;;;;;;5011290;28;20199;-71
2024/02/20 02:34:22;;;;;;;61.00;6.53;;;6.70;99.90;;;;;;5022918;28;20256;-71
2024/02/20 02:36:47;;;;;;;54.28;6.30;;;6.80;99.90;;;;;;5021746;28;20231;-68
2024/02/20 02:39:16;;;;;;;49.25;6.35;;;6.70;99.90;;;;;;5022268;28;21159;-68
2024/02/20 02:41:42;;;;;;;69.82;7.25;;;6.80;99.90;;;;;;5023086;28;20258;-69
2024/02/20 02:44:08;;;;;;;60.05;5.85;;;6.80;99.90;;;;;;5022215;28;20196;-70
2024/02/20 02:46:33;;;;;;;53.78;6.97;;;6.80;99.90;;;;;;5021675;28;20951;-69
2024/02/20 02:48:59;;;;;;;55.08;5.80;;;6.80;99.90;;;;;;5022261;28;20209;-69
2024/02/20 02:51:25;;;;;;;57.63;6.28;;;6.80;99.90;;;;;;5021391;28;20192;-70
2024/02/20 02:53:51;;;;;;;58.03;6.75;;;6.80;99.90;;;;;;5021091;28;20625;-68
2024/02/20 02:56:17;;;;;;;58.88;6.13;;;6.80;99.90;;;;;;5022083;28;20184;-69
2024/02/20 02:58:42;;;;;;;57.35;6.57;;;6.80;99.90;;;;;;5021833;28;20200;-70
2024/02/20 03:01:09;;;;;;;49.35;5.90;;;6.80;99.90;;;;;;5022001;28;20196;-68
2024/02/20 03:03:35;;;;;;;58.00;6.45;;;6.80;99.90;;;;;;5021729;28;20192;-69
2024/02/20 03:06:08;;;;;;;60.90;6.78;;;6.80;99.90;;;;;;5008321;28;21044;-71
2024/02/20 03:08:36;;;;;;;49.47;6.38;;;6.80;99.90;;;;;;5022089;28;20289;-70
2024/02/20 03:11:05;;;;;;;50.67;6.60;;;6.80;99.90;;;;;;5022247;28;20203;-69
2024/02/20 03:13:33;;;;;;;50.63;6.25;;;6.80;99.90;;;;;;5021237;28;20226;-68
2024/02/20 03:16:00;;;;;;;57.63;6.38;;;6.80;99.90;;;;;;5020535;28;20196;-69
2024/02/20 03:18:27;;;;;;;43.55;6.22;;;6.80;99.90;;;;;;5037565;28;20266;-69
2024/02/20 03:20:53;;;;;;;45.28;5.72;;;6.80;99.90;;;;;;5021080;28;20188;-71
2024/02/20 03:23:19;;;;;;;48.05;6.40;;;6.80;99.90;;;;;;5020520;28;20667;-69
2024/02/20 03:25:45;;;;;;;42.92;6.07;;;6.80;99.90;;;;;;5021196;28;20194;-70
2024/02/20 03:28:10;;;;;;;53.60;6.22;;;6.80;99.90;;;;;;5019417;28;20252;-70
2024/02/20 03:30:36;;;;;;;49.25;6.50;;;6.80;99.90;;;;;;5021954;28;20627;-70
2024/02/20 03:33:02;;;;;;;45.05;5.82;;;6.80;99.90;;;;;;5036123;28;20644;-69
2024/02/20 03:35:27;;;;;;;46.25;5.80;;;6.80;99.90;;;;;;5025751;28;20405;-71
2024/02/20 03:37:53;;;;;;;55.08;7.00;;;6.80;99.90;;;;;;5021010;28;20226;-70
2024/02/20 03:40:19;;;;;;;47.35;6.03;;;6.80;99.90;;;;;;5021014;28;20196;-67
2024/02/20 03:42:45;;;;;;;59.20;6.32;;;6.80;99.90;;;;;;5021846;28;20597;-70
2024/02/20 03:45:11;;;;;;;56.67;6.25;;;6.70;99.90;;;;;;5020936;28;20224;-70
2024/02/20 03:47:37;;;;;;;67.57;6.70;;;6.70;99.90;;;;;;5021425;28;20591;-70
2024/02/20 03:50:04;;;;;;;62.58;7.07;;;6.70;99.90;;;;;;5021238;28;20279;-69
2024/02/20 03:52:30;;;;;;;57.22;6.63;;;6.70;99.90;;;;;;5035579;28;20192;-68
2024/02/20 03:54:55;;;;;;;54.83;6.55;;;6.70;99.90;;;;;;5021287;28;20253;-71
2024/02/20 03:57:21;;;;;;;53.17;6.35;;;6.60;99.90;;;;;;5020501;28;20284;-68
2024/02/20 03:59:47;;;;;;;53.40;7.07;;;6.70;99.90;;;;;;5021774;28;20663;-69
2024/02/20 04:02:13;;;;;;;66.03;6.38;;;6.70;99.90;;;;;;5035785;28;20203;-69
2024/02/20 04:04:39;;;;;;;64.93;6.25;;;6.60;99.90;;;;;;5021180;28;20561;-69
2024/02/20 04:07:04;;;;;;;50.33;6.22;;;6.60;99.90;;;;;;5020221;28;20192;-68
2024/02/20 04:09:33;;;;;;;47.78;6.28;;;6.60;99.90;;;;;;5020469;28;20216;-70
2024/02/20 04:11:59;;;;;;;65.43;6.75;;;6.60;99.90;;;;;;5020687;28;20644;-69
2024/02/20 04:14:24;;;;;;;60.45;7.15;;;6.60;99.90;;;;;;5007011;28;20250;-69
2024/02/20 04:16:50;;;;;;;42.53;6.20;;;6.50;99.90;;;;;;5020422;28;20207;-70
2024/02/20 04:19:16;;;;;;;52.70;6.00;;;6.50;99.90;;;;;;5021185;28;20656;-68
2024/02/20 04:21:42;;;;;;;58.25;6.70;;;6.50;99.90;;;;;;5020556;28;20572;-70
2024/02/20 04:24:07;;;;;;;64.30;6.97;;;6.50;99.90;;;;;;5021241;28;20609;-70
2024/02/20 04:26:33;;;;;;;58.55;6.85;;;6.50;99.90;;;;;;5020544;28;20196;-70
2024/02/20 04:28:59;;;;;;;57.78;6.70;;;6.50;99.90;;;;;;5020376;28;20242;-71
2024/02/20 04:31:25;;;;;;;59.95;6.15;;;6.50;99.90;;;;;;5020480;28;20262;-67
2024/02/20 04:33:50;;;;;;;52.05;6.47;;;6.40;99.90;;;;;;5020941;28;20315;-69
2024/02/20 04:36:16;;;;;;;40.00;6.05;;;6.50;99.90;;;;;;5021219;28;20192;-68
2024/02/20 04:38:42;;;;;;;66.43;6.68;;;6.50;99.90;;;;;;5020237;28;20196;-71
2024/02/20 04:41:07;;;;;;;53.47;6.93;;;6.40;99.90;;;;;;5020483;28;20195;-70
2024/02/20 04:43:36;;;;;;;64.07;7.43;;;6.50;99.90;;;;;;5018128;28;20719;-67
2024/02/20 04:46:04;;;;;;;59.15;6.90;;;6.50;99.90;;;;;;5020425;28;20254;-70
2024/02/20 04:48:29;;;;;;;53.17;6.72;;;6.50;99.90;;;;;;5019971;28;20677;-69
2024/02/20 04:50:55;;;;;;;62.13;6.15;;;6.50;99.90;;;;;;5034504;28;20200;-70
2024/02/20 04:53:21;;;;;;;51.42;6.05;;;6.50;99.90;;;;;;5019832;28;20539;-69
2024/02/20 04:55:46;;;;;;;54.90;6.32;;;6.50;99.90;;;;;;5020286;28;20184;-70
2024/02/20 04:58:12;;;;;;;55.67;6.68;;;6.50;99.90;;;;;;5018832;28;20283;-70
2024/02/20 05:00:38;;;;;;;61.17;6.63;;;6.60;99.90;;;;;;5020664;28;20237;-69
2024/02/20 05:03:04;;;;;;;47.75;5.72;;;6.50;99.90;;;;;;5020186;28;20224;-69
2024/02/20 05:05:31;;;;;;;54.45;6.40;;;6.60;99.90;;;;;;5009856;28;20199;-70
2024/02/20 05:07:57;;;;;;;66.80;6.50;;;6.60;99.90;;;;;;5019481;28;21040;-70
2024/02/20 05:10:23;;;;;;;52.15;6.70;;;6.60;99.90;;;;;;5020356;28;20223;-68
2024/02/20 05:12:49;;;;;;;50.38;6.75;;;6.60;99.90;;;;;;5020661;28;20276;-70
2024/02/20 05:15:15;;;;;;;50.67;6.22;;;6.60;99.90;;;;;;5020286;28;20242;-70
2024/02/20 05:17:40;;;;;;;52.47;7.22;;;6.60;99.90;;;;;;5021307;28;20192;-71
2024/02/20 05:20:07;;;;;;;53.28;6.80;;;6.70;99.90;;;;;;5019560;28;20671;-68
2024/02/20 05:22:33;;;;;;;53.70;6.20;;;6.70;99.90;;;;;;5018663;28;21377;-70
2024/02/20 05:24:59;;;;;;;59.28;7.25;;;6.70;99.90;;;;;;5019076;28;20192;-70
2024/02/20 05:27:24;;;;;;;59.45;5.97;;;6.70;99.90;;;;;;5019070;28;20204;-69
2024/02/20 05:29:50;;;;;;;53.22;6.50;;;6.80;99.90;;;;;;5023219;28;20218;-67
2024/02/20 05:32:18;;;;;;;53.03;7.07;;;6.80;99.90;;;;;;5024079;28;20583;-70
2024/02/20 05:34:44;;;;;;;51.45;6.90;;;6.80;99.90;;;;;;5023003;28;20303;-71
2024/02/20 05:37:10;;;;;;;55.97;6.40;;;6.80;99.90;;;;;;5022528;28;20196;-67
2024/02/20 05:39:35;;;;;;;56.17;6.70;;;6.80;99.90;;;;;;5021782;28;20208;-69
2024/02/20 05:42:01;;;;;;;50.33;6.47;;;6.80;99.90;;;;;;5022779;28;20261;-69
2024/02/20 05:44:27;;;;;;;62.10;6.90;;;6.80;99.90;;;;;;5022470;28;20302;-71
2024/02/20 05:46:53;;;;;;;56.50;6.63;;;6.80;99.90;;;;;;5038485;28;20291;-69
2024/02/20 05:49:19;;;;;;;54.17;6.72;;;6.80;99.90;;;;;;5022845;28;20224;-70
2024/02/20 05:51:46;;;;;;;52.35;7.00;;;6.90;99.90;;;;;;5022183;28;20241;-72
2024/02/20 05:54:11;;;;;;;55.20;6.82;;;6.90;99.90;;;;;;5023022;28;20196;-69
2024/02/20 05:56:37;;;;;;;62.38;7.07;;;6.90;99.90;;;;;;5023080;28;20188;-72
2024/02/20 05:59:03;;;;;;;52.00;6.88;;;6.80;99.90;;;;;;5023393;28;20222;-70
2024/02/20 06:01:29;;;;;;;52.90;7.03;;;6.90;99.90;;;;;;5022693;28;20207;-70
2024/02/20 06:03:54;;;;;;;53.25;7.28;;;6.90;99.90;;;;;;5021631;28;20223;-71
2024/02/20 06:06:20;;;;;;;47.45;5.63;;;6.90;99.90;;;;;;5013614;28;20203;-69
2024/02/20 06:08:46;;;;;;;55.83;6.72;;;6.90;99.90;;;;;;5022066;28;20228;-69
2024/02/20 06:11:17;;;;;;;49.60;6.43;;;7.00;99.90;;;;;;5022956;28;20678;-70
2024/02/20 06:13:44;;;;;;;46.35;6.32;;;7.00;99.90;;;;;;5023164;28;20294;-71
2024/02/20 06:16:10;;;;;;;46.50;6.10;;;7.00;99.90;;;;;;5022637;28;20179;-71
2024/02/20 06:18:37;;;;;;;49.90;6.15;;;7.10;99.90;;;;;;5021652;28;20199;-69
2024/02/20 06:21:04;;;;;;;49.33;6.43;;;7.10;99.90;;;;;;5022359;28;20299;-70
2024/02/20 06:23:30;;;;;;;43.13;6.00;;;7.10;99.90;;;;;;5023324;28;20199;-71
2024/02/20 06:25:56;;;;;;;49.33;6.75;;;7.10;99.90;;;;;;5021693;28;20188;-71
2024/02/20 06:28:22;;;;;;;48.33;6.45;;;7.20;99.90;;;;;;5023032;28;20224;-70
2024/02/20 06:30:47;;;;;;;54.80;7.18;;;7.20;99.90;;;;;;5022648;28;20581;-70
2024/02/20 06:33:14;;;;;;;46.20;6.70;;;7.30;99.90;;;;;;5020708;28;20668;-70
2024/02/20 06:35:41;;;;;;;60.50;6.68;;;7.30;99.90;;;;;;5022641;28;20192;-70
2024/02/20 06:38:08;;;;;;;52.42;6.60;;;7.30;99.90;;;;;;5021507;28;20202;-71
2024/02/20 06:40:34;;;;;;;62.45;7.45;;;7.30;99.90;;;;;;5023153;28;20656;-71
2024/02/20 06:43:00;;;;;;;56.25;6.90;;;7.40;99.90;;;;;;5037088;28;20246;-70
2024/02/20 06:45:27;;;;;;;43.83;6.43;;;7.40;99.90;;;;;;5020733;28;20569;-71
2024/02/20 06:47:53;;;;;;;42.28;6.40;;;7.40;99.90;;;;;;5037178;28;20617;-73
2024/02/20 06:50:19;;;;;;;49.20;5.78;;;7.40;99.90;;;;;;5021485;28;20244;-72
2024/02/20 06:52:45;;;;;;;46.75;6.70;;;7.40;99.90;;;;;;5026948;28;20334;-70
2024/02/20 06:55:11;;;;;;;39.08;6.07;;;7.50;99.90;;;;;;5022280;28;20198;-72
2024/02/20 06:57:40;;;;;;;43.15;5.82;;;7.50;99.90;;;;;;5021188;28;20267;-72
2024/02/20 07:00:12;;;;;;;50.50;6.53;;;7.50;99.90;;;;;;5021610;28;20187;-71
2024/02/20 07:02:40;;;;;;;52.13;6.38;;;7.50;99.90;;;;;;5019576;28;21124;-70
2024/02/20 07:05:06;;;;;;;54.70;8.55;;;7.50;99.90;;;;;;5020723;28;20663;-72
2024/02/20 07:07:32;;;;;;;47.60;6.32;;;7.60;99.90;;;;;;5021150;28;20196;-68
2024/02/20 07:09:58;;;;;;;48.47;6.35;;;7.60;99.90;;;;;;5021014;28;20299;-70
2024/02/20 07:12:23;;;;;;;44.83;6.45;;;7.70;99.90;;;;;;5021180;28;21034;-72
2024/02/20 07:14:49;;;;;;;35.88;6.10;;;7.70;99.90;;;;;;5019551;28;20207;-73
2024/02/20 07:17:15;;;;;;;45.80;6.05;;;7.70;99.90;;;;;;5018943;28;20200;-73
2024/02/20 07:19:40;;;;;;;45.90;6.22;;;7.70;99.90;;;;;;5020553;28;20188;-72
2024/02/20 07:22:06;;;;;;;55.30;6.45;;;7.80;99.90;;;;;;5020569;28;20192;-73
2024/02/20 07:24:32;;;;;;;46.78;6.45;;;7.80;99.90;;;;;;5020935;28;20188;-72
2024/02/20 07:26:57;;;;;;;42.28;5.90;;;7.80;99.90;;;;;;5022463;28;20239;-71
2024/02/20 07:29:23;;;;;;;39.63;5.90;;;7.90;99.90;;;;;;5019482;28;20219;-69
2024/02/20 07:31:49;;;;;;;45.72;6.63;;;7.90;99.90;;;;;;5020068;28;20353;-70
2024/02/20 07:34:15;;;;;;;42.40;7.05;;;7.90;99.90;;;;;;5019195;28;20223;-71
2024/02/20 07:36:43;;;;;;;42.97;6.28;;;7.90;99.90;;;;;;5021582;28;20302;-71
2024/02/20 07:39:08;;;;;;;44.08;6.32;;;8.00;99.90;;;;;;5024302;28;20307;-70
2024/02/20 07:41:34;;;;;;;47.78;6.70;;;8.00;99.90;;;;;;5012375;28;20314;-69
2024/02/20 07:44:00;;;;;;;41.10;6.32;;;8.00;99.90;;;;;;4988909;28;20310;-70
2024/02/20 07:46:26;;;;;;;39.60;6.45;;;8.10;99.90;;;;;;5020699;28;21324;-71
2024/02/20 07:48:51;;;;;;;47.58;6.43;;;8.10;99.90;;;;;;5021637;28;20583;-71
2024/02/20 07:51:19;;;;;;;47.20;6.70;;;8.10;99.90;;;;;;5018551;28;20196;-70
2024/02/20 07:53:45;;;;;;;45.90;6.25;;;8.20;99.90;;;;;;5021383;28;20196;-71
2024/02/20 07:56:10;;;;;;;39.63;6.40;;;8.20;99.90;;;;;;5035161;28;20250;-74
2024/02/20 07:58:38;;;;;;;43.28;6.63;;;8.30;99.90;;;;;;5019129;28;20188;-70
2024/02/20 08:01:09;;;;;;;45.10;6.20;;;8.30;99.90;;;;;;5020268;28;20195;-69
2024/02/20 08:03:35;;;;;;;39.92;6.65;;;8.30;99.90;;;;;;5021979;28;20183;-70
2024/02/20 08:06:00;;;;;;;37.55;6.75;;;8.30;99.90;;;;;;5021321;28;20187;-69
2024/02/20 08:08:26;;;;;;;51.15;7.25;;;8.40;99.90;;;;;;5020560;28;20626;-71
2024/02/20 08:10:54;;;;;;;41.85;6.68;;;8.40;99.90;;;;;;5020438;28;20224;-70
2024/02/20 08:13:22;;;;;;;40.65;6.60;;;8.40;99.90;;;;;;5018551;28;20187;-69
2024/02/20 08:15:48;;;;;;;38.10;6.35;;;8.50;99.90;;;;;;5007805;28;20195;-70
2024/02/20 08:18:14;;;;;;;45.80;6.70;;;8.40;99.90;;;;;;5020811;28;21163;-71
2024/02/20 08:20:39;;;;;;;43.70;6.72;;;8.50;99.90;;;;;;5019967;28;20703;-69
2024/02/20 08:23:05;;;;;;;46.08;6.88;;;8.50;99.90;;;;;;5020805;28;20196;-70
2024/02/20 08:25:31;;;;;;;47.30;7.57;;;8.60;99.90;;;;;;5019425;28;20286;-71
2024/02/20 08:27:57;;;;;;;39.10;7.15;;;8.60;99.90;;;;;;5020780;28;20191;-68
2024/02/20 08:30:25;;;;;;;45.25;7.03;;;8.60;99.90;;;;;;5019054;28;20276;-70
2024/02/20 08:32:51;;;;;;;33.47;7.03;;;8.70;99.90;;;;;;5021395;28;20284;-71
2024/02/20 08:35:19;;;;;;;39.92;7.63;;;8.70;99.90;;;;;;5017516;28;20265;-69
2024/02/20 08:37:45;;;;;;;48.25;7.65;;;8.70;99.90;;;;;;5020208;28;20486;-68
2024/02/20 08:40:12;;;;;;;45.78;8.27;;;8.80;99.90;;;;;;5018611;28;20381;-71
2024/02/20 08:42:38;;;;;;;45.05;7.57;;;8.90;99.90;;;;;;5020563;28;20200;-69
2024/02/20 08:45:04;;;;;;;42.58;8.23;;;8.90;99.90;;;;;;5034425;28;20180;-70
2024/02/20 08:47:32;;;;;;;39.92;7.80;;;8.90;99.90;;;;;;5018928;28;20188;-70
2024/02/20 08:49:57;;;;;;;45.00;7.43;;;9.00;99.90;;;;;;5017751;28;20524;-71
2024/02/20 08:52:23;;;;;;;55.60;8.23;;;9.10;99.90;;;;;;5019904;28;20254;-70
2024/02/20 08:54:49;;;;;;;62.90;9.20;;;9.10;99.90;;;;;;5018949;28;20187;-72
2024/02/20 08:57:15;;;;;;;43.60;8.20;;;9.20;99.90;;;;;;4990820;28;20196;-71
2024/02/20 08:59:41;;;;;;;43.17;8.20;;;9.30;99.90;;;;;;5019420;28;20196;-70
2024/02/20 09:02:06;;;;;;;44.60;8.57;;;9.30;99.90;;;;;;5021052;28;20534;-71
2024/02/20 09:04:32;;;;;;;55.28;8.73;;;9.40;99.90;;;;;;5023776;28;20569;-71
2024/02/20 09:06:58;;;;;;;51.03;9.52;;;9.50;99.90;;;;;;5022251;28;20302;-72
2024/02/20 09:09:24;;;;;;;40.78;8.50;;;9.50;99.90;;;;;;5022741;28;20237;-70
2024/02/20 09:11:51;;;;;;;47.05;8.60;;;9.60;99.90;;;;;;5022643;28;20386;-71
2024/02/20 09:14:18;;;;;;;44.63;7.85;;;9.70;99.90;;;;;;5023131;28;20184;-69
2024/02/20 09:16:44;;;;;;;48.30;8.48;;;9.70;99.90;;;;;;5012010;28;20640;-71
2024/02/20 09:19:10;;;;;;;41.53;8.70;;;9.80;99.90;;;;;;5023624;28;20192;-70
2024/02/20 09:21:37;;;;;;;41.60;8.10;;;9.80;99.90;;;;;;5010839;28;20303;-71
2024/02/20 09:24:03;;;;;;;42.33;9.13;;;9.90;99.90;;;;;;5023938;28;20628;-71
2024/02/20 09:26:30;;;;;;;52.92;9.38;;;9.90;99.90;;;;;;5023304;28;20249;-69
2024/02/20 09:28:56;;;;;;;46.35;9.27;;;10.00;99.90;;;;;;5022043;28;20235;-70
2024/02/20 09:31:21;;;;;;;41.65;9.07;;;10.00;99.90;;;;;;5038635;28;20544;-71
2024/02/20 09:33:48;;;;;;;39.60;8.70;;;10.10;99.90;;;;;;5037739;28;20674;-70
2024/02/20 09:36:14;;;;;;;55.38;9.82;;;10.10;99.90;;;;;;5022869;28;20215;-78
2024/02/20 09:38:40;;;;;;;45.00;9.25;;;10.20;99.90;;;;;;5023291;28;20231;-68
2024/02/20 09:41:07;;;;;;;47.60;9.90;;;10.30;99.90;;;;;;5021717;28;20274;-71
2024/02/20 09:43:33;;;;;;;54.40;10.40;;;10.30;99.90;;;;;;5022993;28;20587;-72
2024/02/20 09:46:15;;;;;;;45.67;9.77;;;10.30;99.90;;;;;;5023815;28;20192;-72
2024/02/20 09:48:42;;;;;;;47.33;9.90;;;10.40;99.90;;;;;;5023213;28;21254;-71
2024/02/20 09:51:09;;;;;;;46.88;10.02;;;10.40;99.90;;;;;;5023123;28;20545;-69
2024/02/20 09:53:37;;;;;;;48.45;9.68;;;10.40;99.90;;;;;;5023683;28;20207;-70
2024/02/20 09:56:03;;;;;;;48.65;9.48;;;10.40;99.90;;;;;;5023428;28;20195;-71
2024/02/20 09:58:29;;;;;;;46.63;10.57;;;10.40;99.90;;;;;;5022350;28;20192;-72
2024/02/20 10:00:57;;;;;;;40.50;9.10;;;10.50;99.90;;;;;;5023446;28;20207;-70
2024/02/20 10:03:27;;;;;;;60.10;9.18;;;10.50;99.90;;;;;;5022622;28;20187;-70
2024/02/20 10:05:53;;;;;;;39.47;8.73;;;10.50;99.90;;;;;;5038451;28;20214;-71
2024/02/20 10:08:23;;;;;;;36.47;8.95;;;10.50;99.90;;;;;;5023017;28;20187;-71
2024/02/20 10:10:48;;;;;;;39.25;8.70;;;10.50;99.90;;;;;;5023213;28;20525;-69
2024/02/20 10:13:14;;;;;;;41.55;9.15;;;10.60;99.90;;;;;;5021290;28;20184;-70
2024/02/20 10:15:40;;;;;;;46.70;9.75;;;10.60;99.90;;;;;;5025010;28;20191;-69
2024/02/20 10:18:07;;;;;;;44.45;8.95;;;10.60;99.90;;;;;;5022827;28;20264;-71
2024/02/20 10:20:33;;;;;;;40.95;9.45;;;10.60;99.90;;;;;;5020719;28;20213;-71
2024/02/20 10:23:17;;;;;;;45.17;9.55;;;10.60;99.90;;;;;;5022881;28;20603;-70
2024/02/20 10:25:42;;;;;;;51.72;9.57;;;10.60;99.90;;;;;;5009371;28;20196;-71
2024/02/20 10:28:08;;;;;;;48.67;9.90;;;10.60;99.90;;;;;;5021979;28;20238;-70
2024/02/20 10:30:34;;;;;;;42.67;9.13;;;10.70;99.90;;;;;;5022612;28;20222;-71
2024/02/20 10:33:00;;;;;;;41.47;9.60;;;10.70;99.90;;;;;;5020748;28;20253;-71
2024/02/20 10:35:26;;;;;;;52.40;10.77;;;10.70;99.90;;;;;;5020282;28;20240;-69
2024/02/20 10:38:03;;;;;;;39.85;9.38;;;10.70;99.90;;;;;;5009089;28;20204;-72
2024/02/20 10:40:30;;;;;;;43.13;10.10;;;10.70;99.90;;;;;;5022434;28;20309;-71
2024/02/20 10:42:56;;;;;;;39.28;10.13;;;10.80;99.90;;;;;;5021821;28;20192;-69
2024/02/20 10:45:23;;;;;;;41.13;10.13;;;10.80;99.90;;;;;;5022308;28;20298;-70
2024/02/20 10:47:52;;;;;;;41.92;9.82;;;10.90;99.90;;;;;;5022692;28;20196;-70
2024/02/20 10:50:18;;;;;;;44.55;9.23;;;10.90;99.90;;;;;;5036468;28;20230;-72
2024/02/20 10:52:44;;;;;;;39.00;8.68;;;11.00;99.90;;;;;;5022552;28;20266;-70
2024/02/20 10:55:11;;;;;;;39.88;9.52;;;11.00;99.90;;;;;;5021957;28;20196;-69
2024/02/20 10:57:39;;;;;;;36.95;9.60;;;11.10;99.90;;;;;;5009207;28;20188;-71
2024/02/20 11:00:09;;;;;;;46.95;9.23;;;11.10;99.90;;;;;;5021435;28;20180;-71
2024/02/20 11:02:46;;;;;;;39.75;9.25;;;11.10;99.90;;;;;;5022199;28;20225;-69
2024/02/20 11:05:13;;;;;;;40.13;8.90;;;11.20;99.90;;;;;;5006458;28;20282;-70
2024/02/20 11:07:40;;;;;;;43.65;9.57;;;11.30;99.90;;;;;;5020236;28;20196;-69
2024/02/20 11:10:26;;;;;;;44.50;9.20;;;11.30;99.90;;;;;;5022655;28;20240;-72
2024/02/20 11:12:52;;;;;;;44.42;9.63;;;11.30;99.90;;;;;;5020236;28;20215;-72
2024/02/20 11:15:22;;;;;;;43.58;8.95;;;11.40;99.90;;;;;;5021765;28;20269;-71
2024/02/20 11:17:50;;;;;;;36.17;8.35;;;11.40;99.90;;;;;;5021746;28;20211;-71
2024/02/20 11:20:17;;;;;;;43.85;8.73;;;11.50;99.90;;;;;;5021649;28;20291;-73
2024/02/20 11:22:44;;;;;;;40.70;9.07;;;11.50;99.90;;;;;;5020493;28;20207;-70
2024/02/20 11:25:15;;;;;;;36.10;8.77;;;11.50;99.90;;;;;;5035432;28;20207;-72
2024/02/20 11:27:42;;;;;;;41.35;9.10;;;11.50;99.90;;;;;;5020572;28;20198;-71
2024/02/20 11:30:12;;;;;;;39.63;8.23;;;11.50;99.90;;;;;;5006085;28;21270;-69
2024/02/20 11:32:38;;;;;;;39.58;9.68;;;11.50;99.90;;;;;;5021444;28;21095;-71
2024/02/20 11:35:22;;;;;;;36.60;8.52;;;11.50;99.90;;;;;;5020696;28;20230;-71
2024/02/20 11:37:50;;;;;;;38.35;9.30;;;11.50;99.90;;;;;;5019138;28;20318;-70
2024/02/20 11:40:42;;;;;;;38.97;8.68;;;11.60;99.90;;;;;;5021365;28;20314;-69
2024/02/20 11:43:08;;;;;;;50.78;9.13;;;11.60;99.90;;;;;;5017929;28;20212;-68
2024/02/20 11:45:34;;;;;;;37.50;8.68;;;11.60;99.90;;;;;;5020006;28;20643;-72
2024/02/20 11:48:11;;;;;;;40.63;9.52;;;11.70;99.90;;;;;;5020677;28;20282;-71
2024/02/20 11:50:40;;;;;;;41.45;8.52;;;11.70;99.90;;;;;;5020860;28;20203;-70
2024/02/20 11:53:14;;;;;;;39.40;9.18;;;11.70;99.90;;;;;;5005957;28;20631;-70
2024/02/20 11:55:41;;;;;;;36.90;7.93;;;11.80;99.90;;;;;;5020790;28;20195;-71
2024/02/20 11:58:07;;;;;;;42.35;8.55;;;11.70;99.90;;;;;;5008647;28;20531;-70
2024/02/20 12:00:38;;;;;;;43.95;8.57;;;11.70;99.90;;;;;;5020693;28;20636;-71
2024/02/20 12:03:07;;;;;;;43.60;8.55;;;11.70;99.90;;;;;;5021408;28;20195;-70
2024/02/20 12:05:37;;;;;;;33.80;8.30;;;11.70;99.90;;;;;;5021276;28;20191;-71
2024/02/20 12:08:17;;;;;;;36.08;7.60;;;11.70;99.90;;;;;;5020918;28;20191;-70
2024/02/20 12:10:44;;;;;;;34.65;8.07;;;11.70;99.90;;;;;;5020731;28;20203;-70
2024/02/20 12:13:20;;;;;;;36.35;8.15;;;11.70;99.90;;;;;;5019677;28;20192;-70
2024/02/20 12:15:50;;;;;;;38.55;7.15;;;11.70;99.90;;;;;;5020484;28;20201;-71
2024/02/20 12:18:27;;;;;;;34.72;7.65;;;11.70;99.90;;;;;;5019646;28;20206;-70
2024/02/20 12:21:06;;;;;;;36.65;7.13;;;11.70;99.90;;;;;;5020654;28;20187;-71
2024/02/20 12:23:33;;;;;;;33.20;7.28;;;11.70;99.90;;;;;;5006374;28;20529;-71
2024/02/20 12:26:08;;;;;;;49.00;8.40;;;11.70;99.90;;;;;;5035675;28;20317;-71
2024/02/20 12:28:35;;;;;;;33.55;7.25;;;11.70;99.90;;;;;;5034450;28;20187;-71
2024/02/20 12:31:01;;;;;;;34.42;7.22;;;11.70;99.90;;;;;;5020691;28;20263;-71
2024/02/20 12:33:27;;;;;;;34.00;7.13;;;11.80;99.90;;;;;;5019860;28;20188;-70
2024/02/20 12:35:59;;;;;;;31.73;6.22;;;11.80;99.90;;;;;;5020402;28;20195;-71
2024/02/20 12:38:26;;;;;;;31.60;6.45;;;11.80;99.90;;;;;;5011046;28;20230;-71
2024/02/20 12:40:52;;;;;;;32.85;6.60;;;11.80;99.90;;;;;;5024876;28;20991;-70